Flight Track Log - Related Links

Times and Time Zones

All times are in EST time to prevent confusion due to time zone crossing. See the UCA3599 flight status page for this flight to view local times or setup timezone preferences in your user account.

Time Position Orientation Groundspeed Altitude Reporting Facility
EST Latitude Longitude Course Direction KTS MPH feet Rate Location/Type
Thu 05:52:55 AM 42.1789 -75.9478 212° Southwest 258 297 3,300  Level New York Center
Thu 05:53:56 AM 42.1411 -75.9589 192° South 176 203 4,300 1,289 Climbing New York Center
Thu 05:54:56 AM 42.1064 -75.9925 216° Southwest 258 297 5,900 1,488 Climbing New York Center
Thu 05:55:57 AM 42.0733 -76.0289 219° Southwest 208 239 7,300 1,500 Climbing New York Center
Thu 05:56:56 AM 42.0300 -76.0700 215° Southwest 175 201 8,900 1,450 Climbing New York Center
Thu 05:57:57 AM 41.9928 -76.1089 218° Southwest 170 196 10,200 1,412 Climbing New York Center
Thu 05:58:00 AM 41.8471 -76.1514 212° Southwest  Level Estimated
Thu 05:58:55 AM 41.9558 -76.1478 218° Southwest 170 196 11,700  Level New York Center
Thu 05:59:55 AM 41.9250 -76.1817 219° Southwest 170 196 13,200 1,388 Climbing New York Center
Thu 06:00:56 AM 41.8881 -76.2175 216° Southwest 170 196 14,500 1,377 Climbing New York Center
Thu 06:01:57 AM 41.8486 -76.2589 218° Southwest 170 196 16,000 750 Climbing New York Center
Thu 06:02:56 AM 41.8072 -76.3000 217° Southwest 178 205 16,000  Level New York Center
Thu 06:03:55 AM 41.7678 -76.3411 218° Southwest 199 229 16,000  Level New York Center
Thu 06:04:57 AM 41.7219 -76.3875 217° Southwest 209 241 16,000  Level New York Center
Thu 06:05:58 AM 41.6717 -76.4361 216° Southwest 209 241 16,000  Level New York Center
Thu 06:06:56 AM 41.6253 -76.4875 220° Southwest 214 246 16,000  Level New York Center
Thu 06:07:55 AM 41.5775 -76.5333 216° Southwest 214 246 16,000  Level New York Center
Thu 06:08:57 AM 41.5356 -76.5769 218° Southwest 214 246 16,000  Level New York Center
Thu 06:09:55 AM 41.4897 -76.6228 217° Southwest 214 246 16,000  Level New York Center
Thu 06:10:55 AM 41.4372 -76.6736 216° Southwest 214 246 16,000  Level New York Center
Thu 06:11:56 AM 41.3953 -76.7225 221° Southwest 214 246 16,000  Level New York Center
Thu 06:12:55 AM 41.3492 -76.7653 215° Southwest 214 246 16,000  Level New York Center
Thu 06:13:56 AM 41.2939 -76.7908 199° South 209 241 16,000  Level New York Center
Thu 06:14:57 AM 41.2267 -76.7986 185° South 209 241 16,000  Level New York Center
Thu 06:15:55 AM 41.1678 -76.8128 190° South 221 254 16,000  Level New York Center
Thu 06:16:56 AM 41.1131 -76.8217 187° South 216 249 16,000  Level New York Center
Thu 06:17:57 AM 41.0561 -76.8358 191° South 216 249 16,000  Level New York Center
Thu 06:18:57 AM 41.0014 -76.8447 187° South 211 243 16,000  Level New York Center
Thu 06:19:56 AM 40.9467 -76.8536 187° South 206 237 16,000  Level New York Center
Thu 06:20:57 AM 40.8919 -76.8678 191° South 200 230 16,000  Level New York Center
Thu 06:21:58 AM 40.8414 -76.8744 186° South 200 230 16,000  Level New York Center
Thu 06:22:58 AM 40.7825 -76.8883 190° South 200 230 16,000 -51 Level New York Center
Thu 06:23:56 AM 40.7317 -76.9028 192° South 200 230 15,900  Descending New York Center
Thu 06:24:57 AM 40.6722 -76.9222 194° South 205 236 16,000 49 Climbing New York Center
Thu 06:25:58 AM 40.6236 -76.9369 193° South 205 236 16,000  Level New York Center
Thu 06:26:58 AM 40.5642 -76.9564 194° South 205 236 16,000  Level New York Center
Thu 06:27:55 AM 40.5156 -76.9711 193° South 205 236 16,000  Level New York Center
Thu 06:28:56 AM 40.4583 -76.9906 194° South 205 236 16,000 -295 Level New York Center
Thu 06:29:57 AM 40.4094 -77.0053 193° South 205 236 15,400 -689 Descending New York Center
Thu 06:30:58 AM 40.3481 -77.0242 193° South 205 236 14,600 -807 Descending New York Center
Thu 06:31:56 AM 40.2972 -77.0386 192° South 210 242 13,800 -834 Descending New York Center
Thu 06:35:17 AM 40.1000 -77.1000 193° South 207 238 11,000 -809 Descending Potomac TRACON
Thu 06:36:23 AM 40.0333 -77.1167 191° South 203 234 10,200 -762 Descending Potomac TRACON
Thu 06:37:23 AM 39.9833 -77.1333 194° South 222 255 9,400 -667 Descending Potomac TRACON
Thu 06:38:11 AM 39.9333 -77.1500 194° South 233 268 9,000 -220 Descending Potomac TRACON
Thu 06:39:12 AM 39.8667 -77.1667 191° South 244 281 9,000 -417 Level Potomac TRACON
Thu 06:40:06 AM 39.8167 -77.2167 218° Southwest 236 272 8,200 -667 Descending Potomac TRACON
Thu 06:41:00 AM 39.7667 -77.2500 207° Southwest 239 275 7,800 -667 Descending Potomac TRACON
Thu 06:41:54 AM 39.7167 -77.2833 207° Southwest 244 281 7,000 -750 Descending Potomac TRACON
Thu 06:43:00 AM 39.6500 -77.3167 201° Southwest 250 288 6,300 -700 Descending Potomac TRACON
Thu 06:43:54 AM 39.5833 -77.3667 210° Southwest 247 284 5,600 -737 Descending Potomac TRACON
Thu 06:44:54 AM 39.5333 -77.4000 207° Southwest 244 281 4,900 -684 Descending Potomac TRACON
Thu 06:45:48 AM 39.4667 -77.4167 191° South 249 287 4,300 -474 Descending Potomac TRACON
Thu 06:46:48 AM 39.4000 -77.4333 191° South 239 275 4,000 -200 Descending Potomac TRACON
Thu 06:47:48 AM 39.3333 -77.4333 180° South 239 275 3,900 -261 Descending Potomac TRACON
Thu 06:48:43 AM 39.2667 -77.4333 180° South 246 283 3,500 -417 Descending Potomac TRACON
Thu 06:49:43 AM 39.2000 -77.4333 180° South 245 282 3,100 -250 Descending Potomac TRACON
Thu 06:50:43 AM 39.1333 -77.4333 180° South 235 270 3,000 -200 Descending Potomac TRACON
Thu 06:51:43 AM 39.0833 -77.4333 180° South 196 226 2,700 -579 Descending Potomac TRACON
Thu 06:52:37 AM 39.0333 -77.4333 180° South 157 181 1,900 -737 Descending Potomac TRACON
Thu 06:53:37 AM 39.0000 -77.4333 180° South 104 120 1,300 -600 Descending Potomac TRACON
Thu 06:54:37 AM 38.9833 -77.4333 180° South 106 122 700 -600 Descending Potomac TRACON
Thu 06:56:00 AM 38.9474 -77.4599 142° Southeast  Level Estimated
Thu 07:03:00 AM 38.9474 -77.4599 333° Northwest  Level Estimated
Thu 07:04:00 AM 38.9474 -77.4599 349° North  Level Estimated

Login

Don't have an account? Register now (free) for customized features, flight alerts, and more!